Terminal Aerodrome Forecast
Issued by NWS

Current Version | Previous Version | Graphics & Text | Print | Product List | Glossary On
Versions: 1 2 3 4 5 6 7 8 9 10 11 12 13 14 15 16 17 18 19 20 21 22 23
248
FTUS41 KRLX 202350
TAFCKB
TAF
KCKB 202350Z 2100/2124 05007KT P6SM SCT040
     FM210200 09006KT P6SM BKN100
     FM210500 13005KT P6SM BKN100
     FM211600 17008KT P6SM BKN040
     FM211800 18009KT P6SM SHRA OVC040
     FM212000 18008KT 5SM SHRA BR OVC035
     FM212300 16007KT 2SM SHRA BR OVC025=

USA.gov is the U.S. government's official web portal to all federal, state and local government web resources and services.